createdAt,value
2023-05-19T00:00:31.768Z,445.63
2023-05-19T00:01:31.608Z,441.51
2023-05-19T00:02:39.782Z,434.35
2023-05-19T00:03:31.889Z,439.77
2023-05-19T00:04:31.889Z,440.06
2023-05-19T00:05:40.041Z,434.35
2023-05-19T00:06:32.060Z,439.48
2023-05-19T00:07:32.082Z,434.35
2023-05-19T00:08:40.519Z,433.50
2023-05-19T00:09:32.247Z,435.20
2023-05-19T00:10:32.581Z,442.68
2023-05-19T00:11:39.110Z,442.09
2023-05-19T00:12:32.497Z,446.52
2023-05-19T00:13:32.616Z,441.51
2023-05-19T00:14:39.147Z,449.52
2023-05-19T00:15:32.808Z,454.71
2023-05-19T00:16:33.092Z,456.57
2023-05-19T00:17:39.111Z,455.95
2023-05-19T00:18:32.989Z,455.02
2023-05-19T00:19:33.088Z,458.45
2023-05-19T00:20:39.166Z,458.76
2023-05-19T00:21:33.270Z,460.34
2023-05-19T00:22:33.335Z,460.65
2023-05-19T00:23:39.908Z,462.24
2023-05-19T00:24:33.488Z,467.41
2023-05-19T00:25:33.588Z,461.61
2023-05-19T00:26:40.188Z,466.11
2023-05-19T00:27:33.738Z,461.61
2023-05-19T00:28:33.842Z,461.92
2023-05-19T00:29:42.130Z,456.88
2023-05-19T00:30:34.223Z,455.64
2023-05-19T00:31:34.480Z,455.02
2023-05-19T00:32:44.268Z,454.09
2023-05-19T00:33:34.240Z,450.42
2023-05-19T00:34:34.337Z,446.82
2023-05-19T00:35:42.654Z,443.27
2023-05-19T00:36:34.492Z,439.77
2023-05-19T00:37:34.576Z,437.47
2023-05-19T00:38:44.188Z,442.09
2023-05-19T00:39:34.720Z,440.35
2023-05-19T00:40:34.916Z,439.48
2023-05-19T00:41:41.386Z,442.09
2023-05-19T00:42:34.978Z,440.93
2023-05-19T00:43:35.084Z,441.22
2023-05-19T00:44:42.366Z,438.90
2023-05-19T00:45:35.296Z,436.90
2023-05-19T00:46:35.367Z,438.33
2023-05-19T00:47:41.980Z,439.19
2023-05-19T00:48:35.433Z,436.90
2023-05-19T00:49:35.531Z,435.48
2023-05-19T00:50:43.751Z,436.33
2023-05-19T00:51:35.702Z,433.79
2023-05-19T00:52:35.808Z,431.27
2023-05-19T00:53:45.833Z,430.99
2023-05-19T00:54:35.966Z,428.51
2023-05-19T00:55:36.040Z,430.99
2023-05-19T00:56:45.293Z,429.61
2023-05-19T00:57:36.227Z,423.63
2023-05-19T00:58:36.313Z,422.02
2023-05-19T00:59:42.816Z,426.33
2023-05-19T01:00:36.519Z,427.14
2023-05-19T01:01:36.656Z,427.69
2023-05-19T01:02:44.405Z,427.14
2023-05-19T01:03:36.803Z,427.96
2023-05-19T01:06:22.616Z,108.69
2023-05-19T01:07:24.309Z,220.21
2023-05-19T01:08:33.231Z,298.97
2023-05-19T01:09:23.924Z,354.67
2023-05-19T01:10:23.958Z,382.69
2023-05-19T01:11:30.542Z,400.80
2023-05-19T01:12:24.090Z,408.13
2023-05-19T01:13:24.183Z,409.13
2023-05-19T01:14:31.826Z,416.77
2023-05-19T01:15:24.337Z,416.25
2023-05-19T01:16:24.472Z,413.42
2023-05-19T01:17:32.769Z,409.63
2023-05-19T01:18:24.607Z,407.38
2023-05-19T01:19:24.789Z,405.41
2023-05-19T01:20:30.948Z,404.92
2023-05-19T01:21:24.845Z,400.56
2023-05-19T01:22:24.941Z,401.28
2023-05-19T01:23:31.491Z,395.82
2023-05-19T01:24:25.090Z,395.82
2023-05-19T01:25:25.192Z,390.73
2023-05-19T01:26:32.857Z,387.79
2023-05-19T01:27:25.361Z,384.67
2023-05-19T01:28:25.488Z,383.57
2023-05-19T01:29:32.095Z,383.13
2023-05-19T01:30:25.636Z,380.08
2023-05-19T01:31:25.772Z,380.08
2023-05-19T01:32:32.893Z,374.00
2023-05-19T01:33:25.874Z,374.00
2023-05-19T01:34:25.958Z,368.15
2023-05-19T01:35:32.379Z,368.15
2023-05-19T01:36:26.100Z,364.08
2023-05-19T01:37:26.190Z,363.27
2023-05-19T01:38:32.745Z,362.47
2023-05-19T01:39:26.321Z,360.10
2023-05-19T01:40:26.430Z,359.31
2023-05-19T01:41:34.423Z,356.20
2023-05-19T01:42:26.560Z,357.36
2023-05-19T01:43:26.661Z,354.67
2023-05-19T01:44:33.229Z,354.67
2023-05-19T01:45:26.832Z,352.39
2023-05-19T01:46:27.133Z,350.14
2023-05-19T01:47:33.565Z,350.14
2023-05-19T01:48:27.100Z,345.01
2023-05-19T01:49:41.351Z,341.08
2023-05-19T01:50:27.282Z,338.62
2023-05-19T01:51:27.386Z,335.52
2023-05-19T01:52:41.557Z,331.47
2023-05-19T01:53:27.561Z,330.14
2023-05-19T01:54:27.639Z,326.54
2023-05-19T01:56:38.341Z,114.41
2023-05-19T01:57:38.702Z,194.12
2023-05-19T02:00:00.036Z,104.56
2023-05-19T02:01:01.169Z,184.07
2023-05-19T02:02:11.129Z,237.18
2023-05-19T02:03:01.313Z,266.55
2023-05-19T02:04:01.423Z,283.53
2023-05-19T02:05:07.944Z,291.30
2023-05-19T02:06:01.557Z,296.01
2023-05-19T02:07:01.661Z,300.06
2023-05-19T02:08:09.643Z,299.51
2023-05-19T02:09:01.828Z,299.79
2023-05-19T02:10:01.932Z,298.16
2023-05-19T02:11:10.144Z,294.95
2023-05-19T02:12:02.094Z,296.55
2023-05-19T02:13:02.190Z,293.90
2023-05-19T02:14:10.166Z,297.08
2023-05-19T02:15:02.337Z,296.81
2023-05-19T02:16:02.435Z,296.01
2023-05-19T02:17:10.074Z,296.81
2023-05-19T02:18:02.642Z,298.16
2023-05-19T02:19:02.667Z,300.33
2023-05-19T02:20:10.197Z,299.79
2023-05-19T02:21:02.779Z,299.51
2023-05-19T02:22:02.866Z,300.88
2023-05-19T02:23:10.216Z,302.54
2023-05-19T02:24:03.030Z,301.98
2023-05-19T02:25:03.241Z,300.33
2023-05-19T02:26:09.683Z,299.24
2023-05-19T02:27:03.313Z,297.89
2023-05-19T02:28:03.383Z,297.89
2023-05-19T02:29:09.794Z,296.28
2023-05-19T02:30:03.513Z,297.35
2023-05-19T02:31:03.637Z,296.81
2023-05-19T02:32:09.785Z,294.95
2023-05-19T02:33:03.806Z,296.01
2023-05-19T02:34:03.906Z,294.16
2023-05-19T02:35:04.041Z,294.42
2023-05-19T02:36:04.039Z,294.69
2023-05-19T02:37:04.137Z,291.56
2023-05-19T02:38:11.287Z,291.30
2023-05-19T02:39:04.320Z,290.79
2023-05-19T02:40:04.368Z,287.49
2023-05-19T02:41:10.473Z,284.26
2023-05-19T02:42:04.518Z,279.91
2023-05-19T02:43:04.614Z,281.83
2023-05-19T02:44:11.314Z,280.15
2023-05-19T02:45:04.769Z,282.55
2023-05-19T02:46:04.907Z,282.80
2023-05-19T02:47:11.432Z,285.00
2023-05-19T02:48:05.117Z,285.49
2023-05-19T02:49:05.115Z,285.24
2023-05-19T02:50:11.857Z,281.11
2023-05-19T02:51:05.285Z,279.91
2023-05-19T02:52:05.364Z,276.85
2023-05-19T02:53:11.989Z,277.55
2023-05-19T02:54:05.506Z,276.16
2023-05-19T02:55:05.607Z,274.77
2023-05-19T02:56:13.382Z,272.05
2023-05-19T02:57:05.765Z,271.15
2023-05-19T02:58:05.886Z,268.94
2023-05-19T02:59:12.430Z,268.28
2023-05-19T03:00:06.089Z,268.50
2023-05-19T03:01:06.119Z,266.11
2023-05-19T03:02:06.205Z,266.98
2023-05-19T03:03:06.349Z,265.47
2023-05-19T03:04:06.356Z,266.11
2023-05-19T03:05:15.920Z,267.63
2023-05-19T03:06:06.498Z,263.98
2023-05-19T03:07:06.587Z,262.51
2023-05-19T03:08:14.430Z,262.09
2023-05-19T03:09:06.734Z,260.85
2023-05-19T03:10:06.849Z,256.78
2023-05-19T03:11:13.449Z,254.60
2023-05-19T03:12:06.968Z,249.96
2023-05-19T03:13:07.067Z,247.51
2023-05-19T03:14:07.161Z,245.67
2023-05-19T03:15:07.250Z,243.49
2023-05-19T03:16:07.397Z,240.47
2023-05-19T03:17:13.935Z,237.01
2023-05-19T03:18:07.494Z,234.81
2023-05-19T03:19:07.651Z,232.16
2023-05-19T03:20:15.491Z,230.05
2023-05-19T03:21:07.734Z,227.67
2023-05-19T03:23:16.750Z,87.58
2023-05-19T03:24:17.841Z,138.32
2023-05-19T03:26:39.985Z,80.89
2023-05-19T03:27:40.499Z,130.05
2023-05-19T03:29:55.214Z,80.51
2023-05-19T03:30:56.293Z,131.06
2023-05-19T03:32:05.854Z,166.83
2023-05-19T03:32:56.480Z,188.02
2023-05-19T03:33:56.515Z,200.75
2023-05-19T03:35:03.071Z,208.24
2023-05-19T03:35:56.673Z,212.26
2023-05-19T03:36:56.788Z,214.89
2023-05-19T03:38:03.312Z,217.59
2023-05-19T03:38:56.909Z,218.02
2023-05-19T03:39:57.019Z,217.73
2023-05-19T03:41:03.161Z,217.45
2023-05-19T03:41:57.207Z,217.59
2023-05-19T03:42:57.241Z,218.46
2023-05-19T03:44:03.806Z,217.88
2023-05-19T03:44:57.400Z,216.30
2023-05-19T03:45:57.504Z,216.73
2023-05-19T03:47:07.394Z,215.17
2023-05-19T03:47:57.654Z,215.17
2023-05-19T03:48:57.706Z,216.02
2023-05-19T03:50:06.907Z,214.61
2023-05-19T03:50:57.832Z,213.22
2023-05-19T03:51:57.913Z,214.61
2023-05-19T03:53:07.913Z,215.46
2023-05-19T03:53:58.074Z,214.05
2023-05-19T03:54:58.183Z,212.95
2023-05-19T03:56:04.729Z,212.54
2023-05-19T03:56:58.336Z,212.81
2023-05-19T03:57:58.435Z,211.44
2023-05-19T03:59:06.949Z,211.44
2023-05-19T03:59:58.603Z,211.31
2023-05-19T04:01:12.787Z,208.90
2023-05-19T04:01:58.847Z,209.29
2023-05-19T04:02:58.923Z,209.16
2023-05-19T04:04:13.078Z,208.24
2023-05-19T04:04:59.038Z,207.45
2023-05-19T04:05:59.076Z,207.45
2023-05-19T04:07:13.238Z,207.06
2023-05-19T04:07:59.224Z,205.51
2023-05-19T04:08:59.339Z,204.10
2023-05-19T04:10:13.971Z,203.85
2023-05-19T04:10:59.505Z,202.97
2023-05-19T04:11:59.580Z,201.24
2023-05-19T04:12:59.914Z,198.81
2023-05-19T04:14:09.463Z,198.81
2023-05-19T04:14:59.828Z,197.61
2023-05-19T04:16:16.148Z,195.39
2023-05-19T04:17:00.006Z,194.58
2023-05-19T04:18:00.086Z,195.39
2023-05-19T04:19:14.488Z,195.85
2023-05-19T04:20:00.191Z,195.85
2023-05-19T04:21:00.276Z,195.62
2023-05-19T04:24:12.938Z,57.39
2023-05-19T04:25:21.635Z,96.93
2023-05-19T04:26:14.092Z,130.96
2023-05-19T04:27:14.177Z,156.69
2023-05-19T04:28:20.309Z,172.68
2023-05-19T04:29:14.363Z,182.46
2023-05-19T04:30:15.264Z,186.53
2023-05-19T04:31:21.057Z,189.65
2023-05-19T04:32:14.580Z,191.75
2023-05-19T04:33:14.661Z,194.12
2023-05-19T04:34:24.065Z,196.32
2023-05-19T04:35:14.821Z,195.85
2023-05-19T04:36:14.887Z,195.27
2023-05-19T04:37:21.524Z,198.93
2023-05-19T04:38:15.059Z,201.61
2023-05-19T04:39:15.173Z,204.74
2023-05-19T04:40:21.607Z,204.74
2023-05-19T04:41:15.302Z,205.25
2023-05-19T04:42:15.404Z,205.89
2023-05-19T04:45:36.352Z,74.69
2023-05-19T04:46:43.317Z,117.30
2023-05-19T04:47:37.099Z,149.15
2023-05-19T04:48:37.007Z,169.36
2023-05-19T04:49:46.385Z,183.26
2023-05-19T04:50:37.127Z,190.86
2023-05-19T04:51:37.237Z,196.09
2023-05-19T04:52:45.390Z,198.81
2023-05-19T04:53:37.388Z,201.11
2023-05-19T04:54:37.448Z,204.36
2023-05-19T04:55:48.408Z,205.89
2023-05-19T04:56:37.571Z,204.23
2023-05-19T04:57:37.689Z,206.67
2023-05-19T04:58:43.724Z,208.37
2023-05-19T04:59:37.831Z,207.84
2023-05-19T05:00:37.913Z,208.37
2023-05-19T05:01:44.534Z,210.23
2023-05-19T05:02:38.175Z,207.84
2023-05-19T05:03:38.206Z,207.84
2023-05-19T05:04:44.720Z,209.29
2023-05-19T05:05:38.345Z,209.83
2023-05-19T05:06:38.457Z,211.31
2023-05-19T05:07:44.501Z,213.22
2023-05-19T05:08:38.596Z,215.03
2023-05-19T05:09:38.672Z,217.30
2023-05-19T05:10:48.486Z,217.88
2023-05-19T05:11:38.816Z,217.73
2023-05-19T05:12:38.917Z,218.17
2023-05-19T05:13:45.474Z,218.31
2023-05-19T05:14:39.074Z,219.48
2023-05-19T05:15:39.173Z,217.45
2023-05-19T05:16:45.654Z,218.02
2023-05-19T05:17:39.361Z,218.17
2023-05-19T05:18:39.673Z,214.89
2023-05-19T05:19:47.249Z,213.36
2023-05-19T05:20:39.594Z,215.03
2023-05-19T05:21:39.720Z,213.78
2023-05-19T05:22:46.309Z,213.50
2023-05-19T05:23:39.838Z,213.09
2023-05-19T05:24:39.961Z,211.58
2023-05-19T05:25:46.568Z,211.99
2023-05-19T05:26:40.119Z,210.09
2023-05-19T05:31:49.521Z,61.03
2023-05-19T05:32:50.065Z,113.94
2023-05-19T05:35:11.356Z,80.58
2023-05-19T05:36:12.421Z,137.07
2023-05-19T05:37:18.952Z,178.19
2023-05-19T05:38:12.568Z,202.10
2023-05-19T05:39:12.662Z,217.30
2023-05-19T05:40:20.458Z,228.46
2023-05-19T05:41:12.817Z,233.64
2023-05-19T05:42:12.923Z,240.29
2023-05-19T05:43:12.984Z,244.03
2023-05-19T05:44:13.064Z,246.59
2023-05-19T05:45:13.153Z,250.53
2023-05-19T05:46:19.810Z,255.38
2023-05-19T05:47:13.557Z,257.58
2023-05-19T05:48:13.454Z,254.79
2023-05-19T05:49:20.034Z,252.84
2023-05-19T05:50:13.605Z,251.48
2023-05-19T05:51:13.671Z,255.98
2023-05-19T05:52:20.304Z,254.99
2023-05-19T05:53:13.846Z,254.40
2023-05-19T05:54:13.944Z,260.02
2023-05-19T05:55:20.512Z,263.56
2023-05-19T05:56:14.085Z,264.19
2023-05-19T05:57:14.179Z,265.47
2023-05-19T05:58:23.549Z,270.93
2023-05-19T05:59:14.351Z,270.49
2023-05-19T06:00:14.413Z,271.38
2023-05-19T06:01:21.041Z,267.20
2023-05-19T06:02:14.576Z,265.04
2023-05-19T06:03:14.751Z,256.98
2023-05-19T06:04:23.100Z,262.51
2023-05-19T06:05:14.833Z,270.49
2023-05-19T06:06:14.855Z,274.77
2023-05-19T06:07:23.107Z,273.40
2023-05-19T06:08:15.011Z,272.73
2023-05-19T06:09:15.061Z,266.33
2023-05-19T06:10:21.645Z,262.51
2023-05-19T06:11:15.248Z,259.20
2023-05-19T06:12:15.347Z,262.09
2023-05-19T06:13:22.219Z,264.62
2023-05-19T06:14:15.535Z,264.41
2023-05-19T06:15:15.628Z,261.26
2023-05-19T06:16:22.223Z,260.64
2023-05-19T06:17:15.772Z,262.09
2023-05-19T06:18:15.871Z,261.47
2023-05-19T06:19:25.786Z,260.02
2023-05-19T06:20:16.008Z,256.98
2023-05-19T06:21:16.111Z,257.18
2023-05-19T06:22:24.708Z,257.38
2023-05-19T06:23:16.281Z,258.19
2023-05-19T06:24:16.390Z,251.68
2023-05-19T06:25:24.131Z,250.72
2023-05-19T06:26:16.528Z,254.60
2023-05-19T06:27:16.639Z,258.39
2023-05-19T06:28:24.734Z,263.35
2023-05-19T06:29:16.771Z,266.55
2023-05-19T06:30:16.869Z,267.63
2023-05-19T06:31:25.271Z,263.98
2023-05-19T06:32:17.013Z,259.61
2023-05-19T06:33:17.111Z,257.98
2023-05-19T06:34:23.770Z,260.43
2023-05-19T06:35:17.255Z,262.72
2023-05-19T06:36:17.357Z,262.30
2023-05-19T06:37:24.000Z,263.56
2023-05-19T06:38:17.541Z,263.14
2023-05-19T06:39:17.665Z,263.77
2023-05-19T06:40:25.815Z,261.67
2023-05-19T06:41:17.773Z,259.61
2023-05-19T06:42:17.869Z,259.20
2023-05-19T06:43:24.507Z,259.00
2023-05-19T06:44:20.477Z,258.59
2023-05-19T06:45:18.100Z,255.58
2023-05-19T06:46:26.035Z,251.68
2023-05-19T06:47:18.276Z,251.68
2023-05-19T06:48:18.414Z,253.03
2023-05-19T06:49:27.869Z,259.82
2023-05-19T06:50:18.512Z,269.16
2023-05-19T06:51:18.571Z,274.77
2023-05-19T06:52:24.655Z,289.51
2023-05-19T06:53:18.743Z,305.34
2023-05-19T06:54:18.837Z,321.12
2023-05-19T06:55:25.910Z,319.88
2023-05-19T06:56:19.013Z,312.59
2023-05-19T06:57:19.125Z,308.78
2023-05-19T06:58:25.697Z,309.07
2023-05-19T06:59:19.263Z,310.23
2023-05-19T07:00:21.200Z,312.89
2023-05-19T07:01:25.909Z,317.72
2023-05-19T07:02:19.508Z,314.68
2023-05-19T07:03:19.727Z,311.70
2023-05-19T07:04:28.950Z,309.94
2023-05-19T07:05:19.802Z,307.63
2023-05-19T07:06:19.886Z,316.80
2023-05-19T07:07:19.938Z,325.89
2023-05-19T07:08:20.023Z,324.61
2023-05-19T07:09:20.135Z,324.29
2023-05-19T07:10:27.996Z,324.61
2023-05-19T07:11:20.270Z,322.70
2023-05-19T07:12:20.557Z,319.26
2023-05-19T07:13:27.562Z,303.10
2023-05-19T07:14:20.493Z,294.42
2023-05-19T07:15:23.982Z,286.24
2023-05-19T07:16:20.704Z,286.73
2023-05-19T07:17:20.744Z,291.56
2023-05-19T07:18:20.846Z,298.97
2023-05-19T07:19:29.050Z,298.70
2023-05-19T07:20:20.998Z,305.34
2023-05-19T07:21:37.007Z,306.48
2023-05-19T07:22:21.156Z,304.22
2023-05-19T07:23:21.240Z,311.11
2023-05-19T07:24:21.336Z,312.00
2023-05-19T07:25:21.389Z,311.11
2023-05-19T07:26:21.504Z,309.94
2023-05-19T07:27:21.850Z,316.19
2023-05-19T07:28:21.635Z,318.02
2023-05-19T07:29:21.733Z,315.28
2023-05-19T07:30:22.025Z,317.72
2023-05-19T07:31:21.970Z,320.81
2023-05-19T07:32:22.066Z,336.20
2023-05-19T07:33:22.898Z,344.29
2023-05-19T07:34:22.170Z,351.64
2023-05-19T07:35:22.303Z,353.90
2023-05-19T07:36:22.608Z,357.75
2023-05-19T07:37:22.436Z,361.68
2023-05-19T07:38:22.526Z,364.88
2023-05-19T07:39:22.657Z,365.69
2023-05-19T07:40:22.677Z,363.67
2023-05-19T07:41:22.763Z,377.00
2023-05-19T07:43:38.151Z,120.76
2023-05-19T07:44:39.221Z,252.45
2023-05-19T07:45:40.065Z,354.67
2023-05-19T07:46:39.503Z,418.07
2023-05-19T07:47:39.512Z,440.06
2023-05-19T07:48:48.231Z,475.71
2023-05-19T07:49:39.659Z,502.12
2023-05-19T07:50:39.743Z,512.11
2023-05-19T07:51:46.771Z,520.88
2023-05-19T07:52:39.919Z,511.72
2023-05-19T07:53:40.023Z,512.90
2023-05-19T07:54:48.280Z,517.26
2023-05-19T07:55:40.163Z,507.07
2023-05-19T07:56:40.255Z,508.61
2023-05-19T07:57:49.788Z,491.43
2023-05-19T07:58:40.448Z,484.32
2023-05-19T07:59:40.530Z,477.41
2023-05-19T08:00:40.589Z,477.41
2023-05-19T08:01:40.683Z,462.88
2023-05-19T08:02:40.879Z,455.33
2023-05-19T08:03:40.941Z,443.56
2023-05-19T08:04:40.965Z,440.64
2023-05-19T08:05:41.030Z,435.76
2023-05-19T08:06:41.128Z,430.99
2023-05-19T08:07:41.216Z,428.51
2023-05-19T08:08:41.299Z,421.49
2023-05-19T08:09:41.392Z,419.12
2023-05-19T08:10:41.499Z,418.86
2023-05-19T08:11:41.562Z,422.02
2023-05-19T08:12:41.650Z,426.33
2023-05-19T08:13:41.702Z,437.47
2023-05-19T08:14:41.803Z,435.20
2023-05-19T08:15:41.965Z,443.85
2023-05-19T08:16:41.971Z,448.01
2023-05-19T08:17:42.115Z,442.39
2023-05-19T08:18:42.164Z,435.20
2023-05-19T08:19:42.188Z,442.97
2023-05-19T08:20:42.299Z,451.64
2023-05-19T08:21:42.349Z,445.63
2023-05-19T08:22:42.452Z,450.42
2023-05-19T08:23:42.541Z,454.71
2023-05-19T08:24:42.644Z,460.34
2023-05-19T08:25:42.697Z,466.11
2023-05-19T08:26:42.796Z,466.11
2023-05-19T08:27:42.851Z,464.17
2023-05-19T08:28:42.946Z,463.20
2023-05-19T08:29:43.046Z,466.11
2023-05-19T08:30:43.112Z,469.05
2023-05-19T08:31:43.261Z,464.49
2023-05-19T08:32:43.316Z,459.07
2023-05-19T08:33:43.397Z,487.14
2023-05-19T08:34:43.502Z,501.37
2023-05-19T08:35:43.609Z,522.51
2023-05-19T08:36:43.678Z,531.64
2023-05-19T08:37:43.783Z,556.85
2023-05-19T08:38:43.883Z,564.36
2023-05-19T08:39:43.940Z,546.84
2023-05-19T08:40:44.035Z,507.84
2023-05-19T08:41:44.120Z,461.61
2023-05-19T08:42:44.220Z,444.15
2023-05-19T08:43:44.339Z,446.52
2023-05-19T08:44:44.390Z,438.04
2023-05-19T08:45:50.966Z,446.22
2023-05-19T08:46:44.598Z,451.33
2023-05-19T08:47:44.682Z,459.70
2023-05-19T08:48:55.377Z,468.06
2023-05-19T08:49:44.791Z,472.02
2023-05-19T08:50:44.890Z,476.05
2023-05-19T08:51:50.934Z,470.04
2023-05-19T08:52:47.873Z,475.04
2023-05-19T08:53:45.089Z,470.70
2023-05-19T08:54:54.396Z,463.52
2023-05-19T08:55:45.265Z,477.07
2023-05-19T08:56:45.341Z,491.07
2023-05-19T08:57:51.427Z,509.77
2023-05-19T08:58:45.558Z,520.88
2023-05-19T08:59:45.581Z,532.48
2023-05-19T09:00:53.927Z,531.21
2023-05-19T09:01:45.849Z,528.28
2023-05-19T09:02:55.135Z,521.28
2023-05-19T09:03:52.438Z,515.66
2023-05-19T09:04:46.232Z,493.97
2023-05-19T09:05:46.111Z,480.84
2023-05-19T09:06:52.652Z,471.36
2023-05-19T09:07:46.257Z,475.38
2023-05-19T09:08:46.275Z,464.81
2023-05-19T09:09:53.000Z,461.92
2023-05-19T09:10:46.459Z,455.33
2023-05-19T09:11:46.548Z,447.41
2023-05-19T09:12:54.418Z,442.68
2023-05-19T09:13:46.748Z,453.17
2023-05-19T09:14:46.790Z,469.38
2023-05-19T09:15:58.018Z,478.78
2023-05-19T09:16:47.071Z,485.37
2023-05-19T09:17:47.098Z,505.92
2023-05-19T09:18:53.661Z,559.64
2023-05-19T09:19:47.216Z,569.64
2023-05-19T09:20:47.373Z,580.51
2023-05-19T09:21:55.556Z,593.90
2023-05-19T09:22:47.531Z,614.63
2023-05-19T09:23:47.522Z,642.35
2023-05-19T09:24:47.622Z,635.04
2023-05-19T09:25:47.731Z,632.64
2023-05-19T09:26:47.790Z,667.33
2023-05-19T09:27:47.875Z,694.33
2023-05-19T09:28:47.965Z,709.04
2023-05-19T09:29:48.056Z,727.53
2023-05-19T09:30:56.089Z,722.82
2023-05-19T09:31:48.248Z,706.04
2023-05-19T09:32:48.388Z,710.54
2023-05-19T09:33:48.398Z,712.05
2023-05-19T09:34:48.490Z,712.05
2023-05-19T09:36:53.999Z,185.48
2023-05-19T09:37:54.722Z,402.48
2023-05-19T09:38:54.828Z,533.76
2023-05-19T09:39:55.483Z,590.24
2023-05-19T09:40:54.991Z,623.79
2023-05-19T09:42:05.745Z,644.83
2023-05-19T09:42:55.165Z,652.37
2023-05-19T09:43:55.280Z,660.09
2023-05-19T09:46:16.627Z,177.62
2023-05-19T09:47:17.646Z,384.45
2023-05-19T09:48:23.769Z,510.16
2023-05-19T09:49:17.788Z,563.41
2023-05-19T09:50:17.917Z,590.24
2023-05-19T09:51:24.706Z,589.20
2023-05-19T09:52:18.019Z,591.80
2023-05-19T09:53:18.117Z,595.49
2023-05-19T09:54:24.692Z,593.38
2023-05-19T09:55:18.300Z,587.13
2023-05-19T09:56:18.407Z,594.43
2023-05-19T09:57:28.238Z,590.76
2023-05-19T09:58:18.572Z,591.80
2023-05-19T09:59:18.672Z,598.15
2023-05-19T10:00:24.777Z,597.62
2023-05-19T10:01:18.832Z,621.48
2023-05-19T10:02:18.933Z,596.55
2023-05-19T10:03:27.251Z,578.01
2023-05-19T10:04:19.044Z,561.99
2023-05-19T10:05:19.186Z,543.73
2023-05-19T10:06:26.271Z,548.63
2023-05-19T10:07:19.306Z,536.32
2023-05-19T10:08:19.380Z,536.75
2023-05-19T10:09:25.971Z,536.32
2023-05-19T10:10:19.547Z,534.61
2023-05-19T10:11:19.641Z,527.03
2023-05-19T10:12:19.787Z,526.62
2023-05-19T10:13:19.816Z,528.70
2023-05-19T10:14:19.914Z,522.91
2023-05-19T10:15:26.501Z,521.69
2023-05-19T10:16:20.144Z,515.66
2023-05-19T10:17:20.206Z,509.77
2023-05-19T10:18:20.267Z,499.87
2023-05-19T10:19:20.404Z,489.63
2023-05-19T10:20:20.448Z,488.21
2023-05-19T10:21:27.077Z,502.88
2023-05-19T10:22:20.624Z,507.07
2023-05-19T10:23:20.717Z,505.15
2023-05-19T10:24:27.368Z,510.16
2023-05-19T10:25:20.898Z,504.01
2023-05-19T10:26:20.977Z,493.61
2023-05-19T10:27:27.562Z,495.43
2023-05-19T10:28:21.173Z,498.01
2023-05-19T10:29:21.229Z,514.08
2023-05-19T10:30:21.342Z,522.91
2023-05-19T10:31:21.398Z,525.38
2023-05-19T10:32:21.701Z,514.08
2023-05-19T10:33:27.902Z,507.84
2023-05-19T10:34:21.631Z,507.07
2023-05-19T10:35:21.704Z,495.07
2023-05-19T10:36:21.798Z,496.17
2023-05-19T10:37:21.850Z,524.97
2023-05-19T10:38:21.932Z,531.64
2023-05-19T10:39:22.025Z,551.34
2023-05-19T10:40:22.085Z,596.55
2023-05-19T10:41:22.175Z,588.16
2023-05-19T10:42:22.264Z,586.10
2023-05-19T10:43:22.352Z,594.43
2023-05-19T10:44:22.481Z,586.10
2023-05-19T10:45:29.025Z,586.10
2023-05-19T10:46:22.694Z,597.62
2023-05-19T10:47:22.690Z,605.73
2023-05-19T10:48:28.829Z,596.55
2023-05-19T10:49:22.881Z,601.92
2023-05-19T10:50:22.994Z,600.84
2023-05-19T10:51:23.080Z,604.09
2023-05-19T10:52:23.366Z,592.85
2023-05-19T10:53:23.251Z,581.02
2023-05-19T10:54:29.464Z,571.59
2023-05-19T10:55:23.375Z,569.16
2023-05-19T10:56:23.468Z,565.79
2023-05-19T10:57:23.561Z,551.80
2023-05-19T10:58:24.338Z,551.80
2023-05-19T10:59:23.762Z,541.09
2023-05-19T11:00:30.372Z,540.22
2023-05-19T11:01:23.897Z,531.21
2023-05-19T11:02:24.008Z,514.08
2023-05-19T11:03:31.761Z,500.25
2023-05-19T11:04:24.161Z,498.38
2023-05-19T11:05:24.248Z,502.12
2023-05-19T11:06:30.692Z,487.85
2023-05-19T11:07:24.378Z,492.88
2023-05-19T11:08:24.449Z,485.73
2023-05-19T11:09:40.136Z,468.72
2023-05-19T11:10:24.619Z,474.03
2023-05-19T11:11:24.725Z,476.05
2023-05-19T11:12:31.376Z,474.37
2023-05-19T11:13:26.152Z,468.72
2023-05-19T11:14:24.974Z,462.88
2023-05-19T11:15:25.067Z,457.82
2023-05-19T11:16:25.200Z,460.02
2023-05-19T11:18:37.981Z,119.22
2023-05-19T11:19:39.647Z,255.78
2023-05-19T11:25:12.068Z,107.37
2023-05-19T11:26:14.029Z,272.73
2023-05-19T11:27:13.206Z,382.26
2023-05-19T11:28:13.278Z,424.16
2023-05-19T11:29:13.357Z,455.33
2023-05-19T11:30:13.477Z,475.04
2023-05-19T11:31:13.535Z,480.15
2023-05-19T11:32:13.703Z,482.23
2023-05-19T11:33:20.265Z,488.92
2023-05-19T11:34:13.764Z,491.43
2023-05-19T11:35:13.901Z,491.43
2023-05-19T11:36:13.937Z,503.63
2023-05-19T11:37:14.028Z,504.01
2023-05-19T11:38:14.119Z,504.01
2023-05-19T11:39:22.675Z,509.00
2023-05-19T11:40:14.308Z,519.26
2023-05-19T11:41:14.360Z,512.50
2023-05-19T11:42:14.443Z,510.16
2023-05-19T11:43:14.555Z,514.87
2023-05-19T11:44:14.631Z,516.86
2023-05-19T11:45:21.734Z,522.91
2023-05-19T11:46:14.818Z,525.38
2023-05-19T11:47:14.850Z,527.45
2023-05-19T11:48:14.986Z,536.32
2023-05-19T11:49:15.007Z,546.84
2023-05-19T11:50:15.078Z,538.91
2023-05-19T11:51:25.218Z,546.39
2023-05-19T11:52:15.241Z,565.79
2023-05-19T11:53:15.337Z,580.01
2023-05-19T11:54:15.420Z,569.16
2023-05-19T11:55:15.515Z,581.02
2023-05-19T11:56:15.613Z,601.38
2023-05-19T11:57:15.705Z,635.04
2023-05-19T11:58:15.805Z,634.44
2023-05-19T11:59:15.891Z,645.45
2023-05-19T12:00:24.227Z,641.73
2023-05-19T12:01:16.071Z,628.48
2023-05-19T12:02:19.528Z,604.63
2023-05-19T12:03:23.128Z,594.43
2023-05-19T12:04:16.315Z,581.52
2023-05-19T12:05:16.537Z,568.19
2023-05-19T12:06:16.504Z,558.24
2023-05-19T12:07:16.569Z,563.88
2023-05-19T12:08:16.679Z,561.99
2023-05-19T12:09:16.727Z,561.99
2023-05-19T12:10:16.821Z,553.62
2023-05-19T12:11:18.224Z,551.80
2023-05-19T12:12:17.146Z,558.24
2023-05-19T12:13:17.094Z,556.38
2023-05-19T12:14:17.237Z,547.28
2023-05-19T12:15:17.275Z,539.35
2023-05-19T12:16:17.411Z,532.06
2023-05-19T12:17:17.520Z,519.26
2023-05-19T12:18:25.212Z,524.97
2023-05-19T12:19:17.646Z,544.17
2023-05-19T12:20:17.690Z,559.64
2023-05-19T12:21:17.738Z,553.62
2023-05-19T12:22:17.838Z,554.08
2023-05-19T12:23:17.949Z,573.55
2023-05-19T12:24:24.489Z,591.28
2023-05-19T12:25:18.076Z,586.10
2023-05-19T12:26:18.150Z,574.53
2023-05-19T12:27:18.220Z,571.10
2023-05-19T12:28:18.292Z,578.01
2023-05-19T12:29:18.377Z,585.08
2023-05-19T12:30:18.459Z,598.68
2023-05-19T12:31:18.537Z,625.54
2023-05-19T12:32:18.632Z,646.07
2023-05-19T12:33:18.696Z,651.10
2023-05-19T12:34:18.789Z,647.32
2023-05-19T12:35:18.923Z,672.69
2023-05-19T12:36:18.966Z,680.91
2023-05-19T12:37:19.088Z,672.02
2023-05-19T12:38:19.177Z,668.66
2023-05-19T12:39:20.835Z,685.79
2023-05-19T12:40:19.330Z,683.69
2023-05-19T12:41:19.414Z,695.05
2023-05-19T12:42:19.507Z,703.82
2023-05-19T12:43:19.592Z,701.60
2023-05-19T12:44:19.685Z,706.79
2023-05-19T12:45:19.778Z,697.95
2023-05-19T12:46:19.900Z,683.69
2023-05-19T12:47:19.985Z,676.78
2023-05-19T12:48:20.076Z,663.36
2023-05-19T12:49:20.101Z,658.14
2023-05-19T12:50:20.198Z,639.28
2023-05-19T12:51:20.293Z,642.97
2023-05-19T12:52:20.364Z,626.71
2023-05-19T12:53:20.454Z,628.48
2023-05-19T12:54:20.596Z,639.90
2023-05-19T12:55:20.605Z,644.83
2023-05-19T12:56:20.717Z,646.07
2023-05-19T12:57:20.797Z,639.28